Time;durP1;ratioP1;P1;durP2;ratioP2;P2;SDS_P1;SDS_P2;PMS_P1;PMS_P2;Temp;Humidity;BMP_temperature;BMP_pressure;BME280_temperature;BME280_humidity;BME280_pressure;Samples;Min_cycle;Max_cycle;Signal;HPM_P1;HPM_P2
2022/10/19 00:01:05;;;;;;;18.23;7.28;;;;;;;9.30;66.62;99370.23;1601163;89;20940;-73
2022/10/19 00:03:41;;;;;;;16.27;6.67;;;;;;;9.28;66.86;99365.88;1573465;91;21075;-74
2022/10/19 00:06:18;;;;;;;15.20;6.53;;;;;;;9.24;67.12;99358.03;1554035;91;21332;-73
2022/10/19 00:08:48;;;;;;;16.15;6.45;;;;;;;9.28;67.34;99362.33;1572989;91;20936;-74
2022/10/19 00:11:24;;;;;;;18.35;6.50;;;;;;;9.31;67.40;99360.34;1545177;92;21024;-73
2022/10/19 00:13:58;;;;;;;17.20;6.72;;;;;;;9.33;67.34;99355.91;1573126;91;21067;-73
2022/10/19 00:16:39;;;;;;;20.45;7.67;;;;;;;9.31;67.34;99354.05;1537078;92;20898;-75
2022/10/19 00:19:16;;;;;;;17.82;7.40;;;;;;;9.29;67.46;99352.98;1564129;91;20976;-74
2022/10/19 00:21:48;;;;;;;16.07;6.67;;;;;;;9.31;67.62;99355.42;1547092;92;21622;-74
2022/10/19 00:24:27;;;;;;;18.67;7.58;;;;;;;9.29;67.77;99350.25;1573147;91;21495;-74
2022/10/19 00:26:59;;;;;;;20.50;7.25;;;;;;;9.27;67.94;99346.45;1573111;91;21024;-74
2022/10/19 00:29:27;;;;;;;;;;;;;;;9.25;68.00;99344.58;1575871;91;20959;-74
2022/10/19 00:32:04;;;;;;;15.58;6.55;;;;;;;9.22;68.20;99341.12;1547039;92;21396;-74
2022/10/19 00:34:35;;;;;;;18.52;7.00;;;;;;;9.20;68.37;99334.34;1573144;91;21063;-73
2022/10/19 00:37:08;;;;;;;23.15;7.37;;;;;;;9.19;68.56;99329.42;1572822;91;20944;-74
2022/10/19 00:39:36;;;;;;;15.75;6.60;;;;;;;9.19;68.71;99317.66;1573045;91;20984;-74
2022/10/19 00:42:10;;;;;;;15.25;6.53;;;;;;;9.18;68.88;99303.16;1535084;91;21000;-74
2022/10/19 00:44:40;;;;;;;;;;;;;;;9.18;69.06;99296.88;1572031;91;21108;-74
2022/10/19 00:47:12;;;;;;;23.00;6.25;;;;;;;9.16;69.17;99294.45;1563807;91;20142;-74
2022/10/19 00:49:48;;;;;;;18.32;6.37;;;;;;;9.14;69.39;99309.01;1557776;92;20970;-74
2022/10/19 00:52:17;;;;;;;20.12;7.15;;;;;;;9.10;69.78;99308.58;1573240;91;21020;-74
2022/10/19 00:54:47;;;;;;;21.68;7.08;;;;;;;9.05;70.58;99305.41;1552035;91;21031;-74
2022/10/19 00:57:18;;;;;;;17.52;7.50;;;;;;;9.12;70.77;99298.93;1564430;91;20966;-74
2022/10/19 00:59:51;;;;;;;19.95;7.03;;;;;;;9.21;70.75;99301.16;1543405;91;20999;-74
2022/10/19 01:02:18;;;;;;;;;;;;;;;9.37;70.99;99291.97;1574862;91;20984;-75
2022/10/19 01:04:48;;;;;;;21.85;7.70;;;;;;;9.51;70.27;99292.70;1573131;91;20654;-74
2022/10/19 01:07:18;;;;;;;16.27;6.92;;;;;;;9.58;70.15;99289.50;1573187;91;21023;-74
2022/10/19 01:09:51;;;;;;;18.62;7.72;;;;;;;9.66;70.17;99281.08;1572690;91;21797;-74
2022/10/19 01:12:41;;;;;;;21.80;9.48;;;;;;;9.73;69.96;99280.06;1575946;91;21464;-74
2022/10/19 01:15:39;;;;;;;15.08;7.08;;;;;;;9.81;69.86;99266.39;1554541;91;20981;-74
2022/10/19 01:18:22;;;;;;;21.75;7.92;;;;;;;9.90;69.78;99267.76;1600556;89;21491;-74
2022/10/19 01:21:20;;;;;;;17.32;8.45;;;;;;;9.96;69.37;99265.11;1571763;91;20972;-74
2022/10/19 01:24:22;;;;;;;15.30;8.13;;;;;;;10.01;69.47;99266.91;1577462;91;21538;-74
2022/10/19 01:27:01;;;;;;;21.55;7.78;;;;;;;10.06;69.23;99257.16;1568463;90;21033;-73
2022/10/19 01:30:11;;;;;;;16.62;8.93;;;;;;;10.07;68.95;99247.24;1576631;90;21047;-74
2022/10/19 01:32:55;;;;;;;16.35;8.08;;;;;;;10.06;68.94;99248.37;1575077;90;21499;-74
2022/10/19 01:35:57;;;;;;;19.20;8.18;;;;;;;10.03;68.91;99249.56;1574177;91;20956;-74
2022/10/19 01:39:07;;;;;;;17.02;7.55;;;;;;;9.99;68.95;99238.99;1577437;91;21204;-74
2022/10/19 01:41:56;;;;;;;18.23;7.60;;;;;;;9.89;69.27;99236.79;1575758;90;20991;-74
2022/10/19 01:44:53;;;;;;;18.23;7.15;;;;;;;9.82;69.73;99225.48;1550423;90;21012;-74
2022/10/19 01:47:49;;;;;;;24.30;8.78;;;;;;;9.75;70.31;99230.65;1577454;91;20980;-74
2022/10/19 01:50:32;;;;;;;21.10;7.92;;;;;;;9.70;70.45;99221.20;1576326;91;20956;-75
2022/10/19 01:53:04;;;;;;;22.85;8.55;;;;;;;9.67;70.76;99214.98;1582530;89;21185;-75
2022/10/19 01:55:31;;;;;;;21.87;8.85;;;;;;;9.65;71.03;99220.53;1572504;91;20968;-74
2022/10/19 01:58:12;;;;;;;20.12;8.55;;;;;;;9.63;71.46;99219.48;1576940;90;20994;-74
2022/10/19 02:00:45;;;;;;;31.15;8.60;;;;;;;9.64;71.88;99220.28;1574745;90;21061;-74
2022/10/19 02:03:15;;;;;;;18.73;8.45;;;;;;;9.63;72.18;99209.89;1574211;91;20982;-74
2022/10/19 02:05:50;;;;;;;22.50;8.60;;;;;;;9.65;72.53;99214.48;1555369;91;21080;-75
2022/10/19 02:08:30;;;;;;;17.77;9.35;;;;;;;9.69;72.79;99207.25;1575233;91;20991;-74
2022/10/19 02:11:04;;;;;;;26.05;8.65;;;;;;;9.74;73.29;99212.59;1574123;91;20958;-74
2022/10/19 02:13:38;;;;;;;18.57;8.28;;;;;;;9.80;73.37;99215.98;1552584;91;21580;-73
2022/10/19 02:16:16;;;;;;;25.08;9.10;;;;;;;9.81;73.57;99208.81;1555429;91;21002;-74
2022/10/19 02:18:50;;;;;;;19.55;8.90;;;;;;;9.83;73.58;99201.61;1574287;91;21161;-73
2022/10/19 02:21:28;;;;;;;25.17;9.40;;;;;;;9.84;73.50;99198.55;1575261;91;20918;-75
2022/10/19 02:23:55;;;;;;;;;;;;;;;9.86;73.87;99200.98;1576809;91;21568;-75
2022/10/19 02:26:27;;;;;;;21.35;8.10;;;;;;;9.85;73.62;99197.98;1574160;91;20162;-74
2022/10/19 02:28:59;;;;;;;19.17;8.08;;;;;;;9.82;73.60;99200.03;1575879;91;21003;-73
2022/10/19 02:31:28;;;;;;;22.17;8.83;;;;;;;9.78;73.95;99210.02;1593906;89;21778;-74
2022/10/19 02:34:03;;;;;;;17.25;8.05;;;;;;;9.78;73.95;99210.02;1565001;91;28707;-74
2022/10/19 02:36:36;;;;;;;27.15;9.68;;;;;;;9.73;74.25;99204.68;1571647;89;21468;-75
2022/10/19 02:39:05;;;;;;;19.62;9.03;;;;;;;9.71;74.91;99211.84;1576194;91;21041;-75
2022/10/19 02:42:20;;;;;;;21.12;9.25;;;;;;;9.72;75.33;99202.50;1582779;90;21069;-75
2022/10/19 02:45:03;;;;;;;24.18;8.65;;;;;;;9.73;75.43;99205.48;1574986;89;21166;-75
2022/10/19 02:47:49;;;;;;;20.85;8.50;;;;;;;9.71;75.43;99203.63;1564685;90;20958;-75
2022/10/19 02:50:20;;;;;;;23.35;9.45;;;;;;;9.69;75.63;99198.22;1550064;92;21550;-74
2022/10/19 02:52:47;;;;;;;16.65;7.95;;;;;;;9.66;76.10;99194.18;1549954;92;21062;-75
2022/10/19 02:55:20;;;;;;;17.87;8.33;;;;;;;9.66;77.22;99196.92;1549899;92;20962;-76
2022/10/19 02:57:45;;;;;;;18.85;8.50;;;;;;;9.66;76.67;99195.55;1549820;92;21136;-75
2022/10/19 03:00:12;;;;;;;17.82;8.90;;;;;;;9.66;76.67;99187.89;1550004;92;20931;-76
2022/10/19 03:02:43;;;;;;;18.45;9.50;;;;;;;9.63;76.89;99185.22;1549913;92;21026;-75
2022/10/19 03:05:23;;;;;;;16.10;8.65;;;;;;;9.60;77.16;99177.64;1529393;92;21043;-75
2022/10/19 03:07:52;;;;;;;20.95;9.53;;;;;;;9.57;77.46;99188.67;1531830;92;21120;-74
2022/10/19 03:10:26;;;;;;;18.95;9.88;;;;;;;9.55;77.77;99175.84;1552445;92;20918;-75
2022/10/19 03:12:57;;;;;;;20.52;9.55;;;;;;;9.55;78.26;99172.30;1577216;90;20971;-74
2022/10/19 03:15:28;;;;;;;20.10;9.40;;;;;;;9.54;78.56;99186.56;1551918;91;21031;-74
2022/10/19 03:17:59;;;;;;;23.13;9.57;;;;;;;9.54;78.61;99181.64;1552686;92;21541;-74
2022/10/19 03:20:26;;;;;;;25.60;9.93;;;;;;;9.55;79.02;99184.06;1582038;89;21447;-74
2022/10/19 03:22:56;;;;;;;21.40;10.05;;;;;;;9.56;79.45;99175.28;1565935;90;21637;-75
2022/10/19 03:25:26;;;;;;;19.50;8.80;;;;;;;9.56;79.57;99182.14;1581095;90;20926;-74
2022/10/19 03:27:58;;;;;;;52.85;10.75;;;;;;;9.56;79.79;99188.98;1602308;89;21059;-73
2022/10/19 03:30:28;;;;;;;22.42;10.08;;;;;;;9.55;80.27;99173.67;1568925;91;20991;-74
2022/10/19 03:32:59;;;;;;;23.18;9.63;;;;;;;9.57;80.37;99171.42;1571532;91;20999;-73
2022/10/19 03:35:30;;;;;;;20.92;8.75;;;;;;;9.57;80.86;99170.05;1573901;91;21184;-74
2022/10/19 03:38:03;;;;;;;27.85;11.38;;;;;;;9.59;81.09;99159.58;1574229;91;20983;-73
2022/10/19 03:40:36;;;;;;;20.88;9.43;;;;;;;9.62;81.34;99163.05;1574310;91;20928;-73
2022/10/19 03:43:02;;;;;;;22.32;9.68;;;;;;;9.64;81.90;99167.66;1574330;89;21003;-73
2022/10/19 03:45:28;;;;;;;23.80;10.35;;;;;;;9.67;81.85;99162.09;1574245;91;21527;-73
2022/10/19 03:47:55;;;;;;;17.87;9.60;;;;;;;9.68;81.96;99153.55;1573322;91;21273;-74
2022/10/19 03:50:22;;;;;;;26.20;11.22;;;;;;;9.70;82.09;99149.94;1559082;90;21027;-74
2022/10/19 03:52:49;;;;;;;25.35;10.58;;;;;;;9.72;82.15;99143.57;1574123;90;21505;-73
2022/10/19 03:55:16;;;;;;;25.62;11.80;;;;;;;9.73;82.38;99145.75;1562182;91;21008;-74
2022/10/19 03:57:42;;;;;;;20.30;10.08;;;;;;;9.73;82.46;99147.92;1586419;89;20959;-73
2022/10/19 04:00:11;;;;;;;25.90;10.85;;;;;;;9.74;82.50;99148.17;1554269;90;21179;-74
2022/10/19 04:02:41;;;;;;;22.83;10.37;;;;;;;9.76;82.70;99150.03;1541021;92;20988;-74
2022/10/19 04:05:08;;;;;;;21.05;9.98;;;;;;;9.77;82.85;99153.02;1559886;90;21223;-73
2022/10/19 04:07:35;;;;;;;21.23;10.13;;;;;;;9.76;83.15;99154.14;1556196;91;21666;-76
2022/10/19 04:10:02;;;;;;;23.02;9.93;;;;;;;9.79;83.59;99154.06;1544764;90;20879;-75
2022/10/19 04:12:30;;;;;;;19.82;11.40;;;;;;;9.80;83.93;99164.71;1567905;90;21194;-74
2022/10/19 04:14:57;;;;;;;18.40;9.68;;;;;;;9.82;84.36;99147.34;1563055;91;21032;-74
2022/10/19 04:17:24;;;;;;;22.15;10.68;;;;;;;9.85;84.63;99162.34;1563321;91;20968;-73
2022/10/19 04:19:52;;;;;;;22.50;10.10;;;;;;;9.85;84.52;99157.67;1531676;92;21476;-74
2022/10/19 04:22:19;;;;;;;28.50;12.47;;;;;;;9.88;84.75;99156.23;1570755;90;21034;-74
2022/10/19 04:24:46;;;;;;;20.92;11.63;;;;;;;9.88;84.91;99154.30;1567016;90;22746;-74
2022/10/19 04:27:12;;;;;;;30.25;12.88;;;;;;;9.90;85.10;99143.81;1563645;90;21488;-74
2022/10/19 04:29:40;;;;;;;21.05;11.68;;;;;;;9.90;85.80;99153.41;1561261;90;21550;-74
2022/10/19 04:32:08;;;;;;;26.57;11.45;;;;;;;9.92;86.22;99166.23;1567038;90;21009;-74
2022/10/19 04:34:34;;;;;;;26.97;12.70;;;;;;;9.93;87.09;99162.93;1563096;90;21530;-73
2022/10/19 04:37:01;;;;;;;25.10;13.13;;;;;;;9.94;88.37;99172.20;1565614;90;21072;-74
2022/10/19 04:39:27;;;;;;;26.62;12.28;;;;;;;9.97;88.59;99160.35;1559225;91;21089;-73
2022/10/19 04:41:54;;;;;;;27.27;13.20;;;;;;;9.98;89.15;99163.34;1557905;90;21033;-74
2022/10/19 04:44:21;;;;;;;27.52;12.30;;;;;;;10.00;89.25;99159.71;1565005;90;22264;-77
2022/10/19 04:46:47;;;;;;;25.62;12.40;;;;;;;10.02;89.84;99165.69;1538171;91;21533;-69
2022/10/19 04:49:14;;;;;;;27.05;13.55;;;;;;;10.05;90.35;99169.16;1577361;90;21052;-71
2022/10/19 04:51:41;;;;;;;25.30;12.82;;;;;;;10.06;90.44;99155.69;1578720;89;20924;-71
2022/10/19 04:54:07;;;;;;;35.20;13.18;;;;;;;10.08;90.43;99164.40;1538180;92;20957;-70
2022/10/19 04:56:34;;;;;;;32.17;13.62;;;;;;;10.08;90.83;99178.11;1537779;93;21048;-70
2022/10/19 04:59:00;;;;;;;22.05;12.65;;;;;;;10.09;91.22;99191.50;1535563;93;21119;-75
2022/10/19 05:01:29;;;;;;;53.65;15.40;;;;;;;10.08;91.41;99193.20;1537545;93;21670;-73
2022/10/19 05:03:59;;;;;;;26.25;13.58;;;;;;;10.09;92.97;99191.50;1537693;92;21588;-72
2022/10/19 05:06:26;;;;;;;32.90;13.20;;;;;;;10.17;93.63;99186.59;1537908;93;21002;-69
2022/10/19 05:08:53;;;;;;;32.15;13.83;;;;;;;10.21;92.87;99181.30;1546818;91;20964;-73
2022/10/19 05:11:20;;;;;;;26.73;12.75;;;;;;;10.19;93.63;99173.39;1564637;91;20993;-73
2022/10/19 05:13:46;;;;;;;27.80;13.50;;;;;;;10.18;93.76;99178.61;1576292;91;21099;-77
2022/10/19 05:16:17;;;;;;;30.35;13.43;;;;;;;10.17;94.80;99179.73;1576146;91;21417;-69
2022/10/19 05:18:55;;;;;;;30.23;12.78;;;;;;;10.19;96.19;99183.00;1575800;91;21004;-69
2022/10/19 05:21:22;;;;;;;32.15;15.23;;;;;;;10.20;96.62;99183.80;1574776;91;21053;-71
2022/10/19 05:23:51;;;;;;;32.05;14.45;;;;;;;10.19;98.56;99186.27;1574977;91;20973;-72
2022/10/19 05:26:20;;;;;;;29.23;14.73;;;;;;;10.19;99.63;99184.91;1576329;90;21527;-79
2022/10/19 05:28:55;;;;;;;36.03;15.98;;;;;;;10.18;100.00;99181.34;1602020;89;21443;-70
2022/10/19 05:31:20;;;;;;;32.00;15.32;;;;;;;10.22;100.00;99193.89;1601761;89;21585;-70
2022/10/19 05:33:48;;;;;;;28.62;17.10;;;;;;;10.23;100.00;99203.17;1601992;89;20948;-70
2022/10/19 05:36:24;;;;;;;40.38;19.92;;;;;;;10.25;100.00;99211.08;1597941;89;21027;-70
2022/10/19 05:38:51;;;;;;;41.80;21.70;;;;;;;10.25;100.00;99209.14;1586482;89;21199;-70
2022/10/19 05:41:19;;;;;;;36.73;19.92;;;;;;;10.25;100.00;99209.70;1577120;89;20994;-69
2022/10/19 05:43:46;;;;;;;39.23;19.30;;;;;;;10.24;100.00;99219.06;1601607;88;21008;-71
2022/10/19 05:46:17;;;;;;;35.28;19.95;;;;;;;10.22;100.00;99223.50;1595049;89;21036;-82
2022/10/19 05:48:45;;;;;;;36.30;20.05;;;;;;;10.23;100.00;99219.62;1580817;89;21051;-79
2022/10/19 05:51:15;;;;;;;34.30;18.20;;;;;;;10.25;100.00;99218.74;1579885;89;22105;-69
2022/10/19 05:53:44;;;;;;;37.30;16.93;;;;;;;10.28;100.00;99231.02;1596164;89;27414;-69
2022/10/19 05:56:20;;;;;;;39.92;16.95;;;;;;;10.29;100.00;99223.59;1603820;87;20976;-71
2022/10/19 05:58:48;;;;;;;29.00;16.10;;;;;;;10.31;100.00;99223.52;1591079;89;20897;-74
2022/10/19 06:01:17;;;;;;;31.27;16.45;;;;;;;10.31;100.00;99223.52;1605911;89;21038;-73
2022/10/19 06:03:45;;;;;;;33.15;16.12;;;;;;;10.33;100.00;99221.81;1606024;89;21849;-73
2022/10/19 06:06:11;;;;;;;30.43;16.48;;;;;;;10.32;100.00;99222.95;1604624;89;21037;-71
2022/10/19 06:08:40;;;;;;;27.65;16.97;;;;;;;10.34;100.00;99224.24;1604843;89;20999;-71
2022/10/19 06:11:15;;;;;;;38.70;19.37;;;;;;;10.35;100.00;99221.73;1599211;89;21472;-72
2022/10/19 06:13:45;;;;;;;34.35;19.10;;;;;;;10.36;100.00;99226.66;1587162;90;20984;-71
2022/10/19 06:16:14;;;;;;;30.57;17.90;;;;;;;10.38;100.00;99231.27;1588702;90;21193;-75
2022/10/19 06:18:41;;;;;;;32.50;18.07;;;;;;;10.38;100.00;99238.94;1589170;90;20929;-76
2022/10/19 06:21:11;;;;;;;31.80;17.25;;;;;;;10.38;100.00;99243.05;1589289;90;20969;-73
2022/10/19 06:23:38;;;;;;;37.67;16.73;;;;;;;10.39;100.00;99243.86;1584916;89;21161;-71
2022/10/19 06:26:12;;;;;;;30.12;15.88;;;;;;;10.38;100.00;99251.28;1574520;89;20955;-72
2022/10/19 06:28:40;;;;;;;31.80;16.00;;;;;;;10.39;100.00;99256.20;1566717;90;21261;-70
2022/10/19 06:31:07;;;;;;;27.73;15.08;;;;;;;10.38;100.00;99252.66;1538312;92;21566;-70
2022/10/19 06:33:38;;;;;;;27.80;14.53;;;;;;;10.38;100.00;99251.28;1559626;92;21028;-72
2022/10/19 06:36:17;;;;;;;30.00;15.13;;;;;;;10.39;100.00;99245.23;1519383;92;21027;-78
2022/10/19 06:38:46;;;;;;;28.25;15.85;;;;;;;10.41;100.00;99245.12;1571928;90;21095;-72
2022/10/19 06:41:21;;;;;;;34.13;16.07;;;;;;;10.42;100.00;99245.36;1539979;92;21472;-75
2022/10/19 06:43:55;;;;;;;30.88;15.72;;;;;;;10.43;100.00;99235.19;1574023;89;20885;-72
2022/10/19 06:46:25;;;;;;;25.23;13.85;;;;;;;10.45;100.00;99241.97;1567240;90;21115;-69
2022/10/19 06:48:59;;;;;;;25.75;14.20;;;;;;;10.48;100.00;99244.64;1568228;91;20933;-78
2022/10/19 06:51:28;;;;;;;26.87;13.72;;;;;;;10.51;100.00;99252.23;1557287;91;20969;-75
2022/10/19 06:54:00;;;;;;;24.50;13.15;;;;;;;10.53;100.00;99264.50;1567124;90;21201;-71
2022/10/19 06:56:34;;;;;;;19.82;12.35;;;;;;;10.56;100.00;99277.58;1568126;89;20974;-69
2022/10/19 06:59:05;;;;;;;23.98;12.33;;;;;;;10.60;100.00;99276.37;1564201;90;20980;-68
2022/10/19 07:01:34;;;;;;;23.22;10.85;;;;;;;10.61;100.00;99279.92;1566713;91;21108;-70
2022/10/19 07:04:04;;;;;;;14.47;8.88;;;;;;;10.65;100.00;99272.09;1523737;92;27417;-75
2022/10/19 07:06:33;;;;;;;14.10;7.35;;;;;;;10.71;100.00;99279.61;1537689;92;21169;-77
2022/10/19 07:09:02;;;;;;;11.97;6.80;;;;;;;10.74;100.00;99277.02;1560606;91;21001;-81
2022/10/19 07:11:33;;;;;;;11.53;5.37;;;;;;;10.80;100.00;99277.67;1559430;91;21038;-79
2022/10/19 07:14:01;;;;;;;6.58;4.58;;;;;;;10.85;100.00;99284.37;1553856;92;21091;-74
2022/10/19 07:16:32;;;;;;;6.72;4.60;;;;;;;10.88;100.00;99279.05;1546832;92;21566;-70
2022/10/19 07:19:04;;;;;;;6.20;4.00;;;;;;;10.95;100.00;99281.30;1537141;93;21287;-70
2022/10/19 07:21:31;;;;;;;6.17;4.05;;;;;;;10.98;100.00;99274.32;1537055;92;21012;-72
2022/10/19 07:24:05;;;;;;;7.55;3.65;;;;;;;11.00;100.00;99272.86;1539547;93;21116;-73
2022/10/19 07:26:33;;;;;;;8.58;3.58;;;;;;;11.04;100.00;99262.84;1573485;90;21598;-72
2022/10/19 07:41:22;;;;;;;4.85;3.17;;;;;;;11.25;100.00;99274.77;1556868;91;21054;-70
2022/10/19 07:43:57;;;;;;;9.53;3.87;;;;;;;11.35;100.00;99270.06;1541492;91;27477;-75
2022/10/19 07:46:27;;;;;;;6.97;3.85;;;;;;;11.38;100.00;99258.41;1555618;91;21310;-75
2022/10/19 07:49:01;;;;;;;8.43;3.42;;;;;;;11.41;100.00;99268.19;1556051;92;21050;-75
2022/10/19 07:51:35;;;;;;;6.05;3.02;;;;;;;11.42;100.00;99256.05;1556861;92;21092;-74
2022/10/19 07:54:07;;;;;;;5.62;3.22;;;;;;;11.45;100.00;99260.09;1556628;92;21043;-72
2022/10/19 07:56:40;;;;;;;5.20;2.85;;;;;;;11.44;100.00;99263.41;1580172;90;21120;-73
2022/10/19 07:59:10;;;;;;;7.78;4.10;;;;;;;11.44;100.00;99263.97;1568190;90;21578;-76
2022/10/19 08:01:43;;;;;;;7.55;4.03;;;;;;;11.42;100.00;99271.73;1584816;90;21077;-73
2022/10/19 08:04:10;;;;;;;5.78;3.33;;;;;;;11.36;100.00;99273.05;1587261;90;21016;-73
2022/10/19 08:06:38;;;;;;;3.90;2.37;;;;;;;11.30;100.00;99266.11;1585024;90;21009;-72
2022/10/19 08:09:08;;;;;;;6.22;2.30;;;;;;;11.25;100.00;99269.27;1576046;89;21021;-73
2022/10/19 08:11:36;;;;;;;5.03;2.50;;;;;;;11.26;100.00;99261.84;1586829;89;21336;-77
2022/10/19 08:14:09;;;;;;;5.00;2.20;;;;;;;11.28;100.00;99276.63;1584722;90;21579;-77
2022/10/19 08:16:40;;;;;;;6.93;3.10;;;;;;;11.30;100.00;99277.10;1574579;89;21083;-79
2022/10/19 08:19:14;;;;;;;6.50;2.30;;;;;;;11.32;100.00;99276.20;1574437;90;21017;-79
2022/10/19 08:21:46;;;;;;;5.17;2.45;;;;;;;11.30;100.00;99287.53;1559527;91;21063;-79
2022/10/19 08:24:19;;;;;;;3.83;2.05;;;;;;;11.29;100.00;99282.36;1552773;92;22202;-77
2022/10/19 08:26:50;;;;;;;4.78;1.90;;;;;;;11.30;100.00;99281.22;1584737;89;21025;-74
2022/10/19 08:29:20;;;;;;;4.50;1.50;;;;;;;11.32;100.00;99276.20;1586016;90;20993;-75
2022/10/19 08:31:48;;;;;;;3.33;1.37;;;;;;;11.33;100.00;99273.70;1555320;92;20995;-76
2022/10/19 08:34:21;;;;;;;2.27;1.45;;;;;;;11.31;100.00;99269.91;1555580;92;21011;-73
2022/10/19 08:36:48;;;;;;;2.20;1.42;;;;;;;11.33;100.00;99272.33;1585948;89;21289;-75
2022/10/19 08:39:20;;;;;;;8.58;1.62;;;;;;;11.39;100.00;99271.02;1585433;89;21032;-72
2022/10/19 08:42:05;;;;;;;3.12;1.72;;;;;;;11.42;100.00;99272.55;1569737;90;20937;-75
2022/10/19 08:45:02;;;;;;;1.98;1.10;;;;;;;11.45;100.00;99273.83;1584204;89;21064;-76
2022/10/19 08:47:52;;;;;;;3.25;1.80;;;;;;;11.48;100.00;99273.17;1585872;89;20965;-78
2022/10/19 08:50:34;;;;;;;4.90;1.37;;;;;;;11.53;100.00;99262.00;1586762;89;21428;-77
2022/10/19 08:53:09;;;;;;;;;;;;;;;11.53;100.00;99254.56;1572348;89;21131;-79
2022/10/19 08:55:56;;;;;;;4.12;1.80;;;;;;;11.52;100.00;99254.89;1579391;90;20112;-77
2022/10/19 08:58:56;;;;;;;2.12;1.17;;;;;;;11.54;100.00;99260.30;1586406;90;20976;-77
2022/10/19 09:01:48;;;;;;;3.12;1.30;;;;;;;11.61;100.00;99270.77;1602987;89;21015;-77
2022/10/19 09:04:27;;;;;;;3.65;1.00;;;;;;;11.66;100.00;99266.45;1589566;90;21588;-76
2022/10/19 09:07:33;;;;;;;5.40;1.27;;;;;;;11.70;100.00;99260.54;1589062;90;20959;-74
2022/10/19 09:10:15;;;;;;;2.90;1.15;;;;;;;11.79;99.47;99259.16;1572428;90;21463;-77
2022/10/19 09:12:59;;;;;;;5.28;2.20;;;;;;;11.93;99.56;99258.94;1600250;89;21496;-74
2022/10/19 09:15:42;;;;;;;3.77;1.55;;;;;;;12.05;98.90;99256.28;1579001;90;21676;-73
2022/10/19 09:18:35;;;;;;;3.30;1.90;;;;;;;12.18;97.33;99249.70;1569369;90;20953;-78
2022/10/19 09:21:24;;;;;;;3.70;1.92;;;;;;;12.40;96.51;99247.21;1582085;89;20977;-75
2022/10/19 09:24:16;;;;;;;5.80;1.60;;;;;;;12.58;93.64;99242.38;1559799;92;21037;-83
2022/10/19 09:26:59;;;;;;;6.30;1.75;;;;;;;12.72;93.21;99242.89;1526400;92;21101;-84
2022/10/19 09:29:43;;;;;;;6.53;1.87;;;;;;;12.75;92.17;99250.48;1545123;93;21044;-80
2022/10/19 09:32:16;;;;;;;6.25;1.92;;;;;;;12.71;90.87;99250.95;1574626;90;21216;-75
2022/10/19 09:34:53;;;;;;;3.30;1.55;;;;;;;12.61;90.76;99242.52;1584408;89;21558;-74
2022/10/19 09:37:24;;;;;;;5.40;1.95;;;;;;;12.49;90.60;99254.27;1586794;90;21048;-73
2022/10/19 09:39:54;;;;;;;4.53;1.87;;;;;;;12.39;90.91;99247.78;1586232;89;20986;-73
2022/10/19 09:42:32;;;;;;;4.35;1.50;;;;;;;12.33;92.06;99248.31;1567840;90;21011;-76
2022/10/19 09:45:20;;;;;;;2.92;1.92;;;;;;;12.27;92.50;99241.39;1572144;90;21663;-76
2022/10/19 09:47:47;;;;;;;4.70;1.80;;;;;;;12.24;92.53;99242.30;1588191;90;21551;-86
2022/10/19 09:50:24;;;;;;;4.95;2.15;;;;;;;12.22;92.72;99244.58;1584265;89;21087;-75
2022/10/19 09:53:00;;;;;;;4.22;1.98;;;;;;;12.23;93.01;99235.75;1585469;90;21017;-79
2022/10/19 09:55:44;;;;;;;2.42;1.40;;;;;;;12.26;93.59;99236.45;1586186;90;21072;-77
2022/10/19 09:58:17;;;;;;;2.55;1.30;;;;;;;12.31;93.36;99229.95;1554320;91;21605;-82
2022/10/19 10:00:56;;;;;;;2.15;1.25;;;;;;;12.37;92.35;99232.17;1555079;91;21186;-84
2022/10/19 10:03:34;;;;;;;2.02;0.80;;;;;;;12.41;92.64;99225.42;1567981;90;21024;-75
2022/10/19 10:06:13;;;;;;;2.02;1.27;;;;;;;12.47;91.60;99233.15;1567919;91;22851;-77
2022/10/19 10:08:56;;;;;;;3.33;1.37;;;;;;;12.50;91.77;99224.22;1566586;90;20976;-82
2022/10/19 10:11:30;;;;;;;3.20;1.27;;;;;;;12.55;90.62;99212.20;1553634;90;20967;-80
2022/10/19 10:14:20;;;;;;;6.55;1.90;;;;;;;12.58;90.58;99214.84;1544847;92;20906;-74
2022/10/19 10:16:56;;;;;;;2.58;1.20;;;;;;;12.66;89.63;99212.59;1530310;91;21078;-72
2022/10/19 10:19:29;;;;;;;3.55;1.37;;;;;;;13.06;89.11;99213.64;1553262;92;21052;-75
2022/10/19 10:21:59;;;;;;;2.77;0.88;;;;;;;13.66;85.29;99211.34;1526819;94;20996;-74
2022/10/19 10:24:32;;;;;;;2.60;0.82;;;;;;;14.03;81.50;99210.16;1552976;92;21316;-75
2022/10/19 10:27:05;;;;;;;4.35;1.07;;;;;;;14.32;80.91;99213.80;1530084;91;21171;-84
2022/10/19 10:29:39;;;;;;;1.52;0.95;;;;;;;14.76;78.85;99207.80;1544765;92;21098;-74
2022/10/19 10:32:16;;;;;;;2.10;1.05;;;;;;;15.10;75.79;99204.39;1570649;90;21003;-75
2022/10/19 10:34:59;;;;;;;3.17;1.32;;;;;;;15.04;75.04;99204.42;1532344;92;20980;-76
2022/10/19 10:37:49;;;;;;;1.67;1.17;;;;;;;14.77;74.33;99201.92;1552939;92;21065;-75
2022/10/19 10:40:32;;;;;;;2.65;1.40;;;;;;;14.47;75.73;99201.45;1526746;93;21039;-77
2022/10/19 10:43:10;;;;;;;6.75;1.47;;;;;;;14.20;75.36;99199.44;1526936;92;21534;-81
2022/10/19 10:45:55;;;;;;;3.52;1.40;;;;;;;13.89;76.22;99200.86;1526805;93;21115;-75
2022/10/19 10:48:33;;;;;;;3.90;1.92;;;;;;;13.85;76.45;99195.83;1552108;92;21032;-69
2022/10/19 10:51:05;;;;;;;3.30;1.50;;;;;;;13.94;76.39;99192.92;1558078;90;20980;-77
2022/10/19 10:53:45;;;;;;;1.70;1.22;;;;;;;14.03;72.68;99189.46;1535008;92;21040;-80
2022/10/19 10:56:28;;;;;;;1.62;1.30;;;;;;;14.40;71.19;99183.30;1560855;91;21008;-74
2022/10/19 10:59:21;;;;;;;6.20;1.20;;;;;;;15.17;67.17;99169.22;1537509;92;21064;-78
2022/10/19 11:02:04;;;;;;;2.25;1.15;;;;;;;15.85;63.86;99155.11;1572802;90;21146;-77
2022/10/19 11:04:40;;;;;;;2.00;1.20;;;;;;;15.89;61.90;99160.14;1553912;91;21475;-77
2022/10/19 11:07:20;;;;;;;3.50;1.22;;;;;;;15.55;62.08;99164.47;1543984;92;21035;-79
2022/10/19 11:09:56;;;;;;;4.55;1.67;;;;;;;15.27;63.48;99167.31;1531720;91;21098;-81
2022/10/19 11:12:39;;;;;;;2.75;1.30;;;;;;;14.95;64.26;99169.84;1573455;90;20980;-81
2022/10/19 11:15:17;;;;;;;;;;;;;;;14.62;66.35;99157.09;1569681;91;21610;-76
2022/10/19 11:17:49;;;;;;;5.40;1.67;;;;;;;14.43;67.83;99156.39;1540861;92;21291;-74
2022/10/19 11:20:21;;;;;;;6.70;1.50;;;;;;;14.33;68.73;99152.70;1539470;92;21007;-75
2022/10/19 11:23:01;;;;;;;4.87;1.98;;;;;;;14.26;70.16;99148.93;1556916;90;21016;-74
2022/10/19 11:25:54;;;;;;;3.72;2.17;;;;;;;14.35;71.33;99153.16;1549503;92;21053;-76
2022/10/19 11:28:47;;;;;;;3.72;2.05;;;;;;;14.64;71.26;99142.35;1559207;91;20977;-75
2022/10/19 11:31:23;;;;;;;6.42;2.80;;;;;;;14.86;67.67;99138.22;1547507;92;21050;-73
2022/10/19 11:34:37;;;;;;;8.03;2.20;;;;;;;14.73;66.94;99126.42;1553811;90;28511;-72
2022/10/19 11:37:24;;;;;;;4.92;1.80;;;;;;;14.54;66.96;99131.80;1578090;90;20999;-70
2022/10/19 11:40:09;;;;;;;2.87;1.52;;;;;;;14.31;67.46;99132.92;1596102;88;20947;-75
2022/10/19 11:42:44;;;;;;;3.87;2.00;;;;;;;14.36;68.16;99123.02;1606208;88;20983;-74
2022/10/19 11:45:46;;;;;;;2.72;1.47;;;;;;;15.04;65.19;99109.06;1605680;89;21807;-74
2022/10/19 11:48:43;;;;;;;3.80;1.50;;;;;;;15.83;64.24;99105.65;1605635;89;20952;-73
2022/10/19 11:51:25;;;;;;;8.55;1.82;;;;;;;16.59;60.26;99097.72;1605714;89;20967;-77
2022/10/19 11:54:27;;;;;;;3.17;1.80;;;;;;;16.83;59.56;99091.84;1596643;89;20935;-79
2022/10/19 11:57:17;;;;;;;4.58;1.80;;;;;;;16.73;59.04;99086.94;1607583;89;21514;-81
2022/10/19 12:00:02;;;;;;;4.65;1.70;;;;;;;16.38;58.79;99086.22;1605854;89;21251;-81
2022/10/19 12:03:12;;;;;;;3.05;1.70;;;;;;;15.85;58.95;99078.41;1584455;89;21476;-81
2022/10/19 12:06:07;;;;;;;3.70;2.08;;;;;;;15.44;60.06;99090.09;1613546;87;21027;-81
2022/10/19 12:08:54;;;;;;;6.85;2.95;;;;;;;15.21;61.10;99089.94;1612050;86;21563;-77
2022/10/19 13:32:44;;;;;;;5.28;1.35;;;;;;;14.93;48.16;99047.78;1575446;89;21032;-73
2022/10/19 13:35:35;;;;;;;3.12;1.65;;;;;;;14.87;48.56;99036.19;1552092;92;20980;-75
2022/10/19 13:38:19;;;;;;;7.08;1.52;;;;;;;14.89;47.03;99028.35;1576144;90;20965;-73
2022/10/19 13:40:56;;;;;;;4.10;1.42;;;;;;;14.88;48.60;99030.09;1550824;92;21565;-75